createdAt,value
2023-03-17T00:03:31.476Z,101284.91
2023-03-17T00:08:35.877Z,101283.66
2023-03-17T00:13:38.657Z,101291.77
2023-03-17T00:18:40.139Z,101294.83
2023-03-17T00:23:46.023Z,101298.29
2023-03-17T00:28:47.538Z,101296.05
2023-03-17T00:33:52.347Z,101291.00
2023-03-17T00:38:54.310Z,101290.36
2023-03-17T00:43:55.794Z,101280.51
2023-03-17T00:48:57.999Z,101276.33
2023-03-17T00:53:59.493Z,101278.92
2023-03-17T00:59:01.051Z,101277.46
2023-03-17T01:04:02.621Z,101272.54
2023-03-17T01:09:05.059Z,101267.95
2023-03-17T01:14:06.724Z,101264.03
2023-03-17T01:19:10.099Z,101256.07
2023-03-17T01:24:12.001Z,101262.30
2023-03-17T01:29:14.289Z,101257.82
2023-03-17T01:34:15.937Z,101251.38
2023-03-17T01:39:17.921Z,101252.26
2023-03-17T01:44:19.480Z,101250.89
2023-03-17T01:49:26.749Z,101245.61
2023-03-17T01:54:40.079Z,101246.25
2023-03-17T01:59:53.499Z,101255.91
2023-03-17T02:04:55.430Z,101258.98
2023-03-17T02:09:58.158Z,101254.29
2023-03-17T02:14:59.642Z,101256.80
2023-03-17T02:20:16.208Z,101263.91
2023-03-17T02:25:20.085Z,101267.92
2023-03-17T02:30:30.793Z,101264.21
2023-03-17T02:35:32.958Z,101266.61
2023-03-17T02:40:34.467Z,101267.15
2023-03-17T02:45:36.902Z,101269.83
2023-03-17T02:50:38.458Z,101270.91
2023-03-17T02:55:39.999Z,101272.09
2023-03-17T03:00:41.544Z,101271.48
2023-03-17T03:05:43.359Z,101271.64
2023-03-17T03:10:45.798Z,101286.58
2023-03-17T03:15:47.821Z,101290.54
2023-03-17T03:20:49.429Z,101294.50
2023-03-17T03:25:51.507Z,101298.24
2023-03-17T03:30:53.081Z,101308.55
2023-03-17T03:35:54.631Z,101307.87
2023-03-17T03:40:56.152Z,101311.91
2023-03-17T03:45:57.735Z,101314.66
2023-03-17T03:51:01.067Z,101314.89
2023-03-17T03:56:02.922Z,101311.11
2023-03-17T04:01:06.423Z,101312.33
2023-03-17T04:06:08.277Z,101313.02
2023-03-17T04:11:09.853Z,101320.86
2023-03-17T04:16:11.710Z,101322.81
2023-03-17T04:21:13.860Z,101319.28
2023-03-17T04:26:17.377Z,101312.02
2023-03-17T04:31:19.102Z,101306.12
2023-03-17T04:36:23.896Z,101307.09
2023-03-17T04:41:25.490Z,101308.52
2023-03-17T04:46:27.473Z,101313.86
2023-03-17T04:51:29.041Z,101313.00
2023-03-17T04:56:31.956Z,101310.84
2023-03-17T05:01:33.994Z,101315.86
2023-03-17T05:06:36.057Z,101325.09
2023-03-17T05:11:37.683Z,101320.57
2023-03-17T05:16:39.257Z,101316.05
2023-03-17T05:21:40.762Z,101313.21
2023-03-17T05:26:42.249Z,101322.34
2023-03-17T05:31:43.975Z,101321.24
2023-03-17T05:36:46.476Z,101335.05
2023-03-17T05:41:48.169Z,101350.52
2023-03-17T05:46:49.642Z,101352.91
2023-03-17T05:51:51.216Z,101351.95
2023-03-17T05:56:52.812Z,101351.77
2023-03-17T06:01:54.552Z,101345.67
2023-03-17T06:06:56.066Z,101354.09
2023-03-17T06:11:57.744Z,101366.49
2023-03-17T06:16:59.249Z,101377.70
2023-03-17T06:22:01.012Z,101376.39
2023-03-17T06:27:02.814Z,101378.48
2023-03-17T06:32:19.219Z,101371.64
2023-03-17T06:37:22.655Z,101359.10
2023-03-17T06:42:24.156Z,101354.11
2023-03-17T06:47:26.127Z,101355.45
2023-03-17T06:52:27.801Z,101357.52
2023-03-17T06:57:29.448Z,101358.67
2023-03-17T07:02:31.405Z,101364.66
2023-03-17T07:07:35.520Z,101375.20
2023-03-17T07:12:37.811Z,101374.10
2023-03-17T07:17:39.583Z,101372.70
2023-03-17T07:22:41.883Z,101368.34
2023-03-17T07:27:43.640Z,101368.46
2023-03-17T07:32:49.429Z,101365.20
2023-03-17T07:37:50.959Z,101363.61
2023-03-17T07:42:54.556Z,101357.00
2023-03-17T07:47:56.099Z,101353.17
2023-03-17T07:52:57.798Z,101361.90
2023-03-17T07:58:00.057Z,101363.56
2023-03-17T08:03:09.700Z,101359.05
2023-03-17T08:08:13.226Z,101357.65
2023-03-17T08:13:14.812Z,101355.13
2023-03-17T08:18:16.291Z,101360.51
2023-03-17T08:23:19.215Z,101362.16
2023-03-17T08:28:21.086Z,101346.73
2023-03-17T08:33:23.034Z,101340.54
2023-03-17T08:38:24.620Z,101338.21
2023-03-17T08:43:26.564Z,101340.25
2023-03-17T08:48:28.600Z,101337.86
2023-03-17T08:53:30.252Z,101337.83
2023-03-17T08:58:31.989Z,101342.44
2023-03-17T09:03:34.017Z,101351.55
2023-03-17T09:08:40.559Z,101349.33
2023-03-17T09:13:42.302Z,101352.39
2023-03-17T09:18:46.144Z,101344.64
2023-03-17T09:23:47.656Z,101351.48
2023-03-17T09:28:49.550Z,101358.62
2023-03-17T09:33:52.641Z,101358.73
2023-03-17T09:38:54.353Z,101357.02
2023-03-17T09:44:21.106Z,101358.90
2023-03-17T09:49:29.330Z,101348.04
2023-03-17T09:54:36.505Z,101343.06
2023-03-17T09:59:45.996Z,101339.70
2023-03-17T10:04:48.878Z,101333.40
2023-03-17T10:10:02.923Z,101325.19
2023-03-17T10:15:23.320Z,101319.67
2023-03-17T10:20:28.652Z,101304.27
2023-03-17T10:25:37.405Z,101295.51
2023-03-17T10:30:39.874Z,101290.92
2023-03-17T10:35:44.768Z,101289.70
2023-03-17T10:40:56.477Z,101286.71
2023-03-17T10:46:07.461Z,101273.93
2023-03-17T10:51:11.412Z,101276.41
2023-03-17T10:56:25.198Z,101268.45
2023-03-17T11:01:34.252Z,101267.61
2023-03-17T11:06:47.251Z,101259.85
2023-03-17T11:11:59.140Z,101256.31
2023-03-17T11:17:16.525Z,101254.45
2023-03-17T11:22:34.936Z,101251.39
2023-03-17T11:27:58.921Z,101259.46
2023-03-17T11:33:22.366Z,101246.14
2023-03-17T11:38:28.174Z,101241.04
2023-03-17T11:44:06.567Z,101237.45
2023-03-17T11:49:20.482Z,101227.38
2023-03-17T11:54:40.055Z,101217.96
2023-03-17T11:59:52.340Z,101219.35
2023-03-17T12:05:06.387Z,101203.56
2023-03-17T12:10:36.719Z,101188.63
2023-03-17T12:15:45.591Z,101181.25
2023-03-17T12:21:07.702Z,101179.19
2023-03-17T12:26:14.591Z,101164.27
2023-03-17T12:31:22.816Z,101165.98
2023-03-17T12:36:25.179Z,101152.23
2023-03-17T12:42:01.630Z,101154.09
2023-03-17T12:47:28.026Z,101145.88
2023-03-17T12:53:31.554Z,101151.02
2023-03-17T12:58:42.506Z,101150.64
2023-03-17T13:04:04.286Z,101147.52
2023-03-17T13:09:30.313Z,101146.95
2023-03-17T13:14:45.903Z,101148.45
2023-03-17T13:20:07.680Z,101144.36
2023-03-17T13:25:37.552Z,101138.03
2023-03-17T13:30:39.482Z,101132.69
2023-03-17T13:36:11.852Z,101129.61
2023-03-17T13:41:40.631Z,101128.58
2023-03-17T13:46:42.181Z,101121.21
2023-03-17T13:51:59.424Z,101115.08
2023-03-17T13:57:22.975Z,101109.45
2023-03-17T14:02:29.355Z,101112.54
2023-03-17T14:07:56.865Z,101116.14
2023-03-17T14:13:37.051Z,101101.70
2023-03-17T14:18:42.877Z,101090.51
2023-03-17T14:23:57.154Z,101078.25
2023-03-17T14:29:00.653Z,101074.43
2023-03-17T14:34:02.371Z,101067.02
2023-03-17T14:39:04.489Z,101059.96
2023-03-17T14:44:09.063Z,101055.56
2023-03-17T14:49:18.046Z,101053.93
2023-03-17T14:54:23.293Z,101052.15
2023-03-17T14:59:33.744Z,101040.73
2023-03-17T15:04:35.489Z,101046.60
2023-03-17T15:09:40.239Z,101058.80
2023-03-17T15:14:43.621Z,101069.79
2023-03-17T15:19:48.060Z,101067.91
2023-03-17T15:25:38.256Z,101055.58
2023-03-17T15:30:48.236Z,101045.48
2023-03-17T15:35:51.112Z,101032.48
2023-03-17T15:40:53.162Z,101029.25
2023-03-17T15:46:02.049Z,101025.33
2023-03-17T15:51:05.603Z,101018.48
2023-03-17T15:56:19.040Z,101015.56
2023-03-17T16:01:21.269Z,101017.46
2023-03-17T16:06:24.435Z,101030.33
2023-03-17T16:11:28.679Z,101031.71
2023-03-17T16:16:42.801Z,101029.86
2023-03-17T16:21:44.494Z,101040.84
2023-03-17T16:26:46.360Z,101049.09
2023-03-17T16:31:50.213Z,101047.39
2023-03-17T16:36:51.714Z,101044.98
2023-03-17T16:41:53.557Z,101041.88
2023-03-17T16:46:55.155Z,101037.05
2023-03-17T16:51:56.793Z,101034.45
2023-03-17T16:56:58.593Z,101034.23
2023-03-17T17:02:01.303Z,101037.60
2023-03-17T17:07:03.015Z,101040.10
2023-03-17T17:12:05.641Z,101047.52
2023-03-17T17:17:07.172Z,101047.42
2023-03-17T17:22:11.398Z,101059.83
2023-03-17T17:27:12.906Z,101060.61
2023-03-17T17:32:18.175Z,101057.47
2023-03-17T17:37:19.693Z,101059.11
2023-03-17T17:42:21.265Z,101062.63
2023-03-17T17:47:23.233Z,101059.98
2023-03-17T17:52:24.978Z,101064.01
2023-03-17T17:57:27.142Z,101060.33
2023-03-17T18:02:28.632Z,101060.77
2023-03-17T18:07:30.216Z,101063.27
2023-03-17T18:12:31.778Z,101065.94
2023-03-17T18:17:33.926Z,101061.27
2023-03-17T18:22:36.077Z,101054.23
2023-03-17T18:27:38.651Z,101065.77
2023-03-17T18:32:42.962Z,101064.70
2023-03-17T18:37:45.337Z,101062.75
2023-03-17T18:42:47.422Z,101057.06
2023-03-17T18:47:49.013Z,101055.64
2023-03-17T18:52:50.816Z,101056.97
2023-03-17T18:57:54.573Z,101059.82
2023-03-17T19:02:56.199Z,101058.59
2023-03-17T19:07:57.820Z,101050.70
2023-03-17T19:12:59.957Z,101053.38
2023-03-17T19:18:01.724Z,101056.55
2023-03-17T19:23:06.967Z,101059.21
2023-03-17T19:28:08.961Z,101063.77
2023-03-17T19:33:18.750Z,101060.26
2023-03-17T19:38:20.636Z,101058.48
2023-03-17T19:43:39.064Z,101055.17
2023-03-17T19:48:41.995Z,101059.08
2023-03-17T19:53:43.511Z,101060.73
2023-03-17T19:58:47.332Z,101058.62
2023-03-17T20:03:49.598Z,101057.08
2023-03-17T20:08:51.234Z,101057.89
2023-03-17T20:13:52.942Z,101056.83
2023-03-17T20:18:54.582Z,101055.42
2023-03-17T20:23:56.850Z,101049.58
2023-03-17T20:28:58.353Z,101051.06
2023-03-17T20:33:59.888Z,101048.65
2023-03-17T20:39:01.409Z,101047.75
2023-03-17T20:44:02.922Z,101049.23
2023-03-17T20:49:05.692Z,101046.80
2023-03-17T20:54:08.728Z,101046.07
2023-03-17T20:59:11.955Z,101040.56
2023-03-17T21:04:16.032Z,101036.94
2023-03-17T21:09:17.897Z,101039.95
2023-03-17T21:14:20.017Z,101036.72
2023-03-17T21:19:22.736Z,101032.81
2023-03-17T21:24:35.870Z,101034.88
2023-03-17T21:29:38.418Z,101033.33
2023-03-17T21:34:40.015Z,101028.24
2023-03-17T21:39:41.501Z,101033.73
2023-03-17T21:44:43.347Z,101031.51
2023-03-17T21:49:44.922Z,101023.52
2023-03-17T21:54:46.546Z,101019.61
2023-03-17T21:59:48.251Z,101025.57
2023-03-17T22:04:49.941Z,101027.45
2023-03-17T22:09:57.014Z,101033.04
2023-03-17T22:14:59.180Z,101038.61
2023-03-17T22:20:00.802Z,101043.69
2023-03-17T22:25:05.218Z,101047.89
2023-03-17T22:30:07.631Z,101044.79
2023-03-17T22:35:09.364Z,101042.19
2023-03-17T22:40:11.668Z,101035.32
2023-03-17T22:45:13.306Z,101027.45
2023-03-17T22:50:15.261Z,101018.75
2023-03-17T22:55:16.853Z,101015.66
2023-03-17T23:00:26.126Z,101013.61
2023-03-17T23:05:28.551Z,101016.27
2023-03-17T23:10:33.683Z,101012.69
2023-03-17T23:15:36.482Z,101012.48
2023-03-17T23:20:40.017Z,101010.75
2023-03-17T23:25:41.830Z,101010.05
2023-03-17T23:30:45.799Z,101002.89
2023-03-17T23:35:50.263Z,101000.50
2023-03-17T23:40:57.822Z,100994.52
2023-03-17T23:46:00.601Z,100995.52
2023-03-17T23:51:03.228Z,100991.23
2023-03-17T23:56:06.609Z,100986.27
